sensor_id;sensor_type;location;lat;lon;timestamp;pressure;altitude;pressure_sealevel;temperature
16956;BMP180;8594;52.052;8.354;2024-02-21T00:00:46;101165.00;;;11.70
16956;BMP180;8594;52.052;8.354;2024-02-21T00:03:13;101164.00;;;11.70
16956;BMP180;8594;52.052;8.354;2024-02-21T00:05:41;101161.00;;;11.20
16956;BMP180;8594;52.052;8.354;2024-02-21T00:08:08;101162.00;;;11.80
16956;BMP180;8594;52.052;8.354;2024-02-21T00:10:35;101171.00;;;11.80
16956;BMP180;8594;52.052;8.354;2024-02-21T00:13:02;101162.00;;;11.60
16956;BMP180;8594;52.052;8.354;2024-02-21T00:15:28;101152.00;;;11.80
16956;BMP180;8594;52.052;8.354;2024-02-21T00:17:55;101152.00;;;11.40
16956;BMP180;8594;52.052;8.354;2024-02-21T00:20:22;101155.00;;;11.50
16956;BMP180;8594;52.052;8.354;2024-02-21T00:22:52;101149.00;;;11.60
16956;BMP180;8594;52.052;8.354;2024-02-21T00:25:20;101145.00;;;11.60
16956;BMP180;8594;52.052;8.354;2024-02-21T00:27:46;101138.00;;;11.30
16956;BMP180;8594;52.052;8.354;2024-02-21T00:30:13;101137.00;;;11.20
16956;BMP180;8594;52.052;8.354;2024-02-21T00:32:39;101137.00;;;11.40
16956;BMP180;8594;52.052;8.354;2024-02-21T00:35:07;101128.00;;;11.30
16956;BMP180;8594;52.052;8.354;2024-02-21T00:37:34;101128.00;;;11.40
16956;BMP180;8594;52.052;8.354;2024-02-21T00:40:02;101121.00;;;11.70
16956;BMP180;8594;52.052;8.354;2024-02-21T00:42:30;101104.00;;;11.50
16956;BMP180;8594;52.052;8.354;2024-02-21T00:44:58;101102.00;;;11.40
16956;BMP180;8594;52.052;8.354;2024-02-21T00:47:25;101109.00;;;11.30
16956;BMP180;8594;52.052;8.354;2024-02-21T00:49:51;101112.00;;;11.60
16956;BMP180;8594;52.052;8.354;2024-02-21T00:52:18;101109.00;;;11.90
16956;BMP180;8594;52.052;8.354;2024-02-21T00:54:45;101104.00;;;11.80
16956;BMP180;8594;52.052;8.354;2024-02-21T00:57:13;101094.00;;;11.80
16956;BMP180;8594;52.052;8.354;2024-02-21T00:59:39;101090.00;;;11.80
16956;BMP180;8594;52.052;8.354;2024-02-21T01:02:07;101091.00;;;11.90
16956;BMP180;8594;52.052;8.354;2024-02-21T01:04:34;101086.00;;;12.00
16956;BMP180;8594;52.052;8.354;2024-02-21T01:07:02;101094.00;;;11.80
16956;BMP180;8594;52.052;8.354;2024-02-21T01:09:28;101085.00;;;11.60
16956;BMP180;8594;52.052;8.354;2024-02-21T01:11:55;101091.00;;;11.50
16956;BMP180;8594;52.052;8.354;2024-02-21T01:14:23;101095.00;;;11.80
16956;BMP180;8594;52.052;8.354;2024-02-21T01:16:50;101093.00;;;12.20
16956;BMP180;8594;52.052;8.354;2024-02-21T01:19:17;101101.00;;;11.30
16956;BMP180;8594;52.052;8.354;2024-02-21T01:21:43;101093.00;;;11.70
16956;BMP180;8594;52.052;8.354;2024-02-21T01:24:10;101086.00;;;11.50
16956;BMP180;8594;52.052;8.354;2024-02-21T01:26:37;101093.00;;;11.70
16956;BMP180;8594;52.052;8.354;2024-02-21T01:29:03;101080.00;;;11.60
16956;BMP180;8594;52.052;8.354;2024-02-21T01:31:31;101088.00;;;11.80
16956;BMP180;8594;52.052;8.354;2024-02-21T01:33:58;101083.00;;;11.80
16956;BMP180;8594;52.052;8.354;2024-02-21T01:36:25;101079.00;;;11.80
16956;BMP180;8594;52.052;8.354;2024-02-21T01:38:51;101058.00;;;12.00
16956;BMP180;8594;52.052;8.354;2024-02-21T01:41:18;101061.00;;;11.90
16956;BMP180;8594;52.052;8.354;2024-02-21T01:43:45;101065.00;;;12.10
16956;BMP180;8594;52.052;8.354;2024-02-21T01:46:12;101059.00;;;12.00
16956;BMP180;8594;52.052;8.354;2024-02-21T01:48:40;101056.00;;;12.00
16956;BMP180;8594;52.052;8.354;2024-02-21T01:51:08;101050.00;;;11.90
16956;BMP180;8594;52.052;8.354;2024-02-21T01:53:37;101046.00;;;11.90
16956;BMP180;8594;52.052;8.354;2024-02-21T01:56:08;101042.00;;;12.00
16956;BMP180;8594;52.052;8.354;2024-02-21T01:58:37;101042.00;;;11.70
16956;BMP180;8594;52.052;8.354;2024-02-21T02:01:06;101032.00;;;11.60
16956;BMP180;8594;52.052;8.354;2024-02-21T02:03:33;101032.00;;;11.50
16956;BMP180;8594;52.052;8.354;2024-02-21T02:06:01;101032.00;;;11.90
16956;BMP180;8594;52.052;8.354;2024-02-21T02:08:28;101025.00;;;11.70
16956;BMP180;8594;52.052;8.354;2024-02-21T02:10:55;101025.00;;;11.90
16956;BMP180;8594;52.052;8.354;2024-02-21T02:13:22;101009.00;;;11.30
16956;BMP180;8594;52.052;8.354;2024-02-21T02:15:50;101009.00;;;11.60
16956;BMP180;8594;52.052;8.354;2024-02-21T02:18:19;101016.00;;;11.80
16956;BMP180;8594;52.052;8.354;2024-02-21T02:20:47;101007.00;;;11.40
16956;BMP180;8594;52.052;8.354;2024-02-21T02:23:23;101008.00;;;11.70
16956;BMP180;8594;52.052;8.354;2024-02-21T02:25:51;100996.00;;;11.50
16956;BMP180;8594;52.052;8.354;2024-02-21T02:28:19;100999.00;;;11.60
16956;BMP180;8594;52.052;8.354;2024-02-21T02:30:46;101009.00;;;11.80
16956;BMP180;8594;52.052;8.354;2024-02-21T02:33:13;100997.00;;;11.90
16956;BMP180;8594;52.052;8.354;2024-02-21T02:35:40;100997.00;;;12.00
16956;BMP180;8594;52.052;8.354;2024-02-21T02:38:07;100990.00;;;12.00
16956;BMP180;8594;52.052;8.354;2024-02-21T02:40:38;100994.00;;;11.90
16956;BMP180;8594;52.052;8.354;2024-02-21T02:43:05;100987.00;;;11.90
16956;BMP180;8594;52.052;8.354;2024-02-21T02:45:32;100968.00;;;11.50
16956;BMP180;8594;52.052;8.354;2024-02-21T02:47:59;100975.00;;;11.80
16956;BMP180;8594;52.052;8.354;2024-02-21T02:50:27;100963.00;;;11.70
16956;BMP180;8594;52.052;8.354;2024-02-21T02:52:55;100957.00;;;11.70
16956;BMP180;8594;52.052;8.354;2024-02-21T02:55:22;100942.00;;;11.50
16956;BMP180;8594;52.052;8.354;2024-02-21T02:57:50;100939.00;;;11.70
16956;BMP180;8594;52.052;8.354;2024-02-21T03:00:17;100929.00;;;11.20
16956;BMP180;8594;52.052;8.354;2024-02-21T03:02:46;100929.00;;;11.70
16956;BMP180;8594;52.052;8.354;2024-02-21T03:05:14;100917.00;;;11.40
16956;BMP180;8594;52.052;8.354;2024-02-21T03:07:41;100920.00;;;11.70
16956;BMP180;8594;52.052;8.354;2024-02-21T03:10:09;100916.00;;;11.80
16956;BMP180;8594;52.052;8.354;2024-02-21T03:12:36;100921.00;;;11.60
16956;BMP180;8594;52.052;8.354;2024-02-21T03:15:06;100916.00;;;11.60
16956;BMP180;8594;52.052;8.354;2024-02-21T03:17:33;100917.00;;;11.80
16956;BMP180;8594;52.052;8.354;2024-02-21T03:20:01;100924.00;;;11.80
16956;BMP180;8594;52.052;8.354;2024-02-21T03:22:31;100933.00;;;12.20
16956;BMP180;8594;52.052;8.354;2024-02-21T03:24:58;100926.00;;;11.90
16956;BMP180;8594;52.052;8.354;2024-02-21T03:27:25;100920.00;;;12.10
16956;BMP180;8594;52.052;8.354;2024-02-21T03:29:52;100938.00;;;11.70
16956;BMP180;8594;52.052;8.354;2024-02-21T03:32:20;100926.00;;;11.90
16956;BMP180;8594;52.052;8.354;2024-02-21T03:34:47;100927.00;;;11.70
16956;BMP180;8594;52.052;8.354;2024-02-21T03:37:14;100937.00;;;11.80
16956;BMP180;8594;52.052;8.354;2024-02-21T03:39:41;100940.00;;;12.10
16956;BMP180;8594;52.052;8.354;2024-02-21T03:42:07;100944.00;;;11.70
16956;BMP180;8594;52.052;8.354;2024-02-21T03:44:34;100940.00;;;11.90
16956;BMP180;8594;52.052;8.354;2024-02-21T03:47:01;100942.00;;;11.80
16956;BMP180;8594;52.052;8.354;2024-02-21T03:49:29;100946.00;;;11.70
16956;BMP180;8594;52.052;8.354;2024-02-21T03:51:56;100942.00;;;12.00
16956;BMP180;8594;52.052;8.354;2024-02-21T03:54:22;100943.00;;;11.90
16956;BMP180;8594;52.052;8.354;2024-02-21T03:56:49;100948.00;;;11.70
16956;BMP180;8594;52.052;8.354;2024-02-21T03:59:16;100943.00;;;11.80
16956;BMP180;8594;52.052;8.354;2024-02-21T04:01:43;100933.00;;;11.60
16956;BMP180;8594;52.052;8.354;2024-02-21T04:04:10;100952.00;;;11.70
16956;BMP180;8594;52.052;8.354;2024-02-21T04:06:46;100938.00;;;11.80
16956;BMP180;8594;52.052;8.354;2024-02-21T04:09:13;100946.00;;;12.10
16956;BMP180;8594;52.052;8.354;2024-02-21T04:11:40;100934.00;;;12.10
16956;BMP180;8594;52.052;8.354;2024-02-21T04:14:07;100929.00;;;12.20
16956;BMP180;8594;52.052;8.354;2024-02-21T04:16:35;100923.00;;;12.00
16956;BMP180;8594;52.052;8.354;2024-02-21T04:19:02;100934.00;;;12.10
16956;BMP180;8594;52.052;8.354;2024-02-21T04:21:28;100928.00;;;12.10
16956;BMP180;8594;52.052;8.354;2024-02-21T04:23:56;100937.00;;;12.30
16956;BMP180;8594;52.052;8.354;2024-02-21T04:26:24;100934.00;;;11.90
16956;BMP180;8594;52.052;8.354;2024-02-21T04:28:50;100933.00;;;11.80
16956;BMP180;8594;52.052;8.354;2024-02-21T04:31:17;100930.00;;;11.80
16956;BMP180;8594;52.052;8.354;2024-02-21T04:33:44;100932.00;;;11.60
16956;BMP180;8594;52.052;8.354;2024-02-21T04:36:10;100922.00;;;11.60
16956;BMP180;8594;52.052;8.354;2024-02-21T04:38:37;100930.00;;;11.70
16956;BMP180;8594;52.052;8.354;2024-02-21T04:41:06;100920.00;;;12.00
16956;BMP180;8594;52.052;8.354;2024-02-21T04:43:33;100937.00;;;11.80
16956;BMP180;8594;52.052;8.354;2024-02-21T04:46:00;100929.00;;;11.90
16956;BMP180;8594;52.052;8.354;2024-02-21T04:48:27;100930.00;;;11.80
16956;BMP180;8594;52.052;8.354;2024-02-21T04:50:54;100935.00;;;11.60
16956;BMP180;8594;52.052;8.354;2024-02-21T04:53:21;100943.00;;;11.70
16956;BMP180;8594;52.052;8.354;2024-02-21T04:55:47;100938.00;;;11.90
16956;BMP180;8594;52.052;8.354;2024-02-21T04:58:15;100941.00;;;11.90
16956;BMP180;8594;52.052;8.354;2024-02-21T05:00:42;100941.00;;;12.00
16956;BMP180;8594;52.052;8.354;2024-02-21T05:03:09;100936.00;;;11.60
16956;BMP180;8594;52.052;8.354;2024-02-21T05:05:36;100934.00;;;11.60
16956;BMP180;8594;52.052;8.354;2024-02-21T05:08:04;100921.00;;;11.50
16956;BMP180;8594;52.052;8.354;2024-02-21T05:10:30;100927.00;;;12.00
16956;BMP180;8594;52.052;8.354;2024-02-21T05:12:57;100926.00;;;11.60
16956;BMP180;8594;52.052;8.354;2024-02-21T05:15:25;100917.00;;;11.50
16956;BMP180;8594;52.052;8.354;2024-02-21T05:17:52;100912.00;;;11.50
16956;BMP180;8594;52.052;8.354;2024-02-21T05:20:19;100906.00;;;11.30
16956;BMP180;8594;52.052;8.354;2024-02-21T05:22:46;100901.00;;;11.30
16956;BMP180;8594;52.052;8.354;2024-02-21T05:25:13;100884.00;;;11.50
16956;BMP180;8594;52.052;8.354;2024-02-21T05:27:39;100881.00;;;11.50
16956;BMP180;8594;52.052;8.354;2024-02-21T05:30:07;100883.00;;;11.40
16956;BMP180;8594;52.052;8.354;2024-02-21T05:32:36;100888.00;;;10.90
16956;BMP180;8594;52.052;8.354;2024-02-21T05:35:03;100888.00;;;11.30
16956;BMP180;8594;52.052;8.354;2024-02-21T05:37:30;100887.00;;;11.50
16956;BMP180;8594;52.052;8.354;2024-02-21T05:39:57;100885.00;;;11.10
16956;BMP180;8594;52.052;8.354;2024-02-21T05:42:24;100869.00;;;11.10
16956;BMP180;8594;52.052;8.354;2024-02-21T05:44:50;100867.00;;;11.30
16956;BMP180;8594;52.052;8.354;2024-02-21T05:47:17;100876.00;;;11.60
16956;BMP180;8594;52.052;8.354;2024-02-21T05:49:47;100870.00;;;11.60
16956;BMP180;8594;52.052;8.354;2024-02-21T05:52:14;100865.00;;;11.40
16956;BMP180;8594;52.052;8.354;2024-02-21T05:54:41;100861.00;;;11.40
16956;BMP180;8594;52.052;8.354;2024-02-21T05:57:08;100855.00;;;11.50
16956;BMP180;8594;52.052;8.354;2024-02-21T05:59:34;100851.00;;;11.50
16956;BMP180;8594;52.052;8.354;2024-02-21T06:02:05;100852.00;;;11.40
16956;BMP180;8594;52.052;8.354;2024-02-21T06:04:32;100848.00;;;11.30
16956;BMP180;8594;52.052;8.354;2024-02-21T06:07:00;100850.00;;;11.40
16956;BMP180;8594;52.052;8.354;2024-02-21T06:09:27;100857.00;;;11.60
16956;BMP180;8594;52.052;8.354;2024-02-21T06:11:54;100856.00;;;11.60
16956;BMP180;8594;52.052;8.354;2024-02-21T06:14:21;100852.00;;;11.60
16956;BMP180;8594;52.052;8.354;2024-02-21T06:16:47;100861.00;;;11.30
16956;BMP180;8594;52.052;8.354;2024-02-21T06:19:14;100868.00;;;11.60
16956;BMP180;8594;52.052;8.354;2024-02-21T06:21:42;100868.00;;;11.60
16956;BMP180;8594;52.052;8.354;2024-02-21T06:24:11;100857.00;;;11.50
16956;BMP180;8594;52.052;8.354;2024-02-21T06:26:38;100862.00;;;11.50
16956;BMP180;8594;52.052;8.354;2024-02-21T06:29:05;100855.00;;;11.70
16956;BMP180;8594;52.052;8.354;2024-02-21T06:31:32;100853.00;;;11.80
16956;BMP180;8594;52.052;8.354;2024-02-21T06:33:59;100839.00;;;11.30
16956;BMP180;8594;52.052;8.354;2024-02-21T06:36:26;100832.00;;;11.40
16956;BMP180;8594;52.052;8.354;2024-02-21T06:38:52;100821.00;;;11.60
16956;BMP180;8594;52.052;8.354;2024-02-21T06:41:20;100816.00;;;11.50
16956;BMP180;8594;52.052;8.354;2024-02-21T06:43:47;100813.00;;;11.50
16956;BMP180;8594;52.052;8.354;2024-02-21T06:46:23;100812.00;;;11.90
16956;BMP180;8594;52.052;8.354;2024-02-21T06:48:51;100813.00;;;11.70
16956;BMP180;8594;52.052;8.354;2024-02-21T06:51:17;100810.00;;;12.10
16956;BMP180;8594;52.052;8.354;2024-02-21T06:53:44;100810.00;;;11.50
16956;BMP180;8594;52.052;8.354;2024-02-21T06:56:11;100803.00;;;11.80
16956;BMP180;8594;52.052;8.354;2024-02-21T06:58:39;100793.00;;;11.90
16956;BMP180;8594;52.052;8.354;2024-02-21T07:01:06;100795.00;;;12.00
16956;BMP180;8594;52.052;8.354;2024-02-21T07:03:33;100792.00;;;11.90
16956;BMP180;8594;52.052;8.354;2024-02-21T07:06:00;100796.00;;;12.20
16956;BMP180;8594;52.052;8.354;2024-02-21T07:08:27;100802.00;;;11.60
16956;BMP180;8594;52.052;8.354;2024-02-21T07:10:54;100797.00;;;12.20
16956;BMP180;8594;52.052;8.354;2024-02-21T07:13:20;100799.00;;;11.80
16956;BMP180;8594;52.052;8.354;2024-02-21T07:15:49;100800.00;;;12.00
16956;BMP180;8594;52.052;8.354;2024-02-21T07:18:16;100796.00;;;11.90
16956;BMP180;8594;52.052;8.354;2024-02-21T07:20:43;100807.00;;;12.00
16956;BMP180;8594;52.052;8.354;2024-02-21T07:23:10;100808.00;;;12.30
16956;BMP180;8594;52.052;8.354;2024-02-21T07:25:37;100808.00;;;12.20
16956;BMP180;8594;52.052;8.354;2024-02-21T07:28:04;100820.00;;;12.20
16956;BMP180;8594;52.052;8.354;2024-02-21T07:30:31;100825.00;;;12.00
16956;BMP180;8594;52.052;8.354;2024-02-21T07:32:59;100825.00;;;12.20
16956;BMP180;8594;52.052;8.354;2024-02-21T07:35:26;100821.00;;;12.20
16956;BMP180;8594;52.052;8.354;2024-02-21T07:37:52;100825.00;;;12.00
16956;BMP180;8594;52.052;8.354;2024-02-21T07:40:19;100817.00;;;12.00
16956;BMP180;8594;52.052;8.354;2024-02-21T07:42:46;100814.00;;;11.80
16956;BMP180;8594;52.052;8.354;2024-02-21T07:45:13;100817.00;;;12.40
16956;BMP180;8594;52.052;8.354;2024-02-21T07:47:40;100819.00;;;12.30
16956;BMP180;8594;52.052;8.354;2024-02-21T07:50:09;100823.00;;;12.10
16956;BMP180;8594;52.052;8.354;2024-02-21T07:52:36;100820.00;;;12.10
16956;BMP180;8594;52.052;8.354;2024-02-21T07:55:03;100821.00;;;12.20
16956;BMP180;8594;52.052;8.354;2024-02-21T07:57:29;100814.00;;;12.20
16956;BMP180;8594;52.052;8.354;2024-02-21T07:59:56;100815.00;;;12.10
16956;BMP180;8594;52.052;8.354;2024-02-21T08:02:23;100813.00;;;12.10
16956;BMP180;8594;52.052;8.354;2024-02-21T08:04:50;100815.00;;;12.50
16956;BMP180;8594;52.052;8.354;2024-02-21T08:07:18;100815.00;;;12.60
16956;BMP180;8594;52.052;8.354;2024-02-21T08:09:44;100809.00;;;12.40
16956;BMP180;8594;52.052;8.354;2024-02-21T08:12:11;100802.00;;;12.60
16956;BMP180;8594;52.052;8.354;2024-02-21T08:14:38;100804.00;;;12.50
16956;BMP180;8594;52.052;8.354;2024-02-21T08:17:04;100807.00;;;12.50
16956;BMP180;8594;52.052;8.354;2024-02-21T08:19:31;100799.00;;;12.60
16956;BMP180;8594;52.052;8.354;2024-02-21T08:21:58;100791.00;;;12.40
16956;BMP180;8594;52.052;8.354;2024-02-21T08:24:27;100783.00;;;12.10
16956;BMP180;8594;52.052;8.354;2024-02-21T08:26:53;100776.00;;;12.30
16956;BMP180;8594;52.052;8.354;2024-02-21T08:29:20;100773.00;;;12.50
16956;BMP180;8594;52.052;8.354;2024-02-21T08:31:47;100770.00;;;12.50
16956;BMP180;8594;52.052;8.354;2024-02-21T08:34:13;100760.00;;;12.30
16956;BMP180;8594;52.052;8.354;2024-02-21T08:36:40;100757.00;;;12.60
16956;BMP180;8594;52.052;8.354;2024-02-21T08:39:07;100755.00;;;12.90
16956;BMP180;8594;52.052;8.354;2024-02-21T08:41:36;100752.00;;;13.20
16956;BMP180;8594;52.052;8.354;2024-02-21T08:44:04;100755.00;;;13.00
16956;BMP180;8594;52.052;8.354;2024-02-21T08:46:31;100749.00;;;12.90
16956;BMP180;8594;52.052;8.354;2024-02-21T08:48:57;100749.00;;;13.00
16956;BMP180;8594;52.052;8.354;2024-02-21T08:51:24;100742.00;;;13.20
16956;BMP180;8594;52.052;8.354;2024-02-21T08:53:52;100745.00;;;13.10
16956;BMP180;8594;52.052;8.354;2024-02-21T08:56:19;100732.00;;;13.00
16956;BMP180;8594;52.052;8.354;2024-02-21T08:58:47;100739.00;;;12.70
16956;BMP180;8594;52.052;8.354;2024-02-21T09:01:14;100738.00;;;13.10
16956;BMP180;8594;52.052;8.354;2024-02-21T09:03:41;100736.00;;;13.50
16956;BMP180;8594;52.052;8.354;2024-02-21T09:06:11;100741.00;;;13.20
16956;BMP180;8594;52.052;8.354;2024-02-21T09:08:38;100733.00;;;13.10
16956;BMP180;8594;52.052;8.354;2024-02-21T09:11:06;100735.00;;;13.40
16956;BMP180;8594;52.052;8.354;2024-02-21T09:13:33;100736.00;;;12.80
16956;BMP180;8594;52.052;8.354;2024-02-21T09:16:01;100750.00;;;13.20
16956;BMP180;8594;52.052;8.354;2024-02-21T09:18:28;100741.00;;;13.20
16956;BMP180;8594;52.052;8.354;2024-02-21T09:20:55;100739.00;;;13.20
16956;BMP180;8594;52.052;8.354;2024-02-21T09:23:24;100740.00;;;13.40
16956;BMP180;8594;52.052;8.354;2024-02-21T09:25:51;100734.00;;;13.20
16956;BMP180;8594;52.052;8.354;2024-02-21T09:28:17;100748.00;;;13.20
16956;BMP180;8594;52.052;8.354;2024-02-21T09:30:44;100742.00;;;13.70
16956;BMP180;8594;52.052;8.354;2024-02-21T09:33:15;100738.00;;;13.30
16956;BMP180;8594;52.052;8.354;2024-02-21T09:35:42;100737.00;;;13.50
16956;BMP180;8594;52.052;8.354;2024-02-21T09:38:08;100734.00;;;13.00
16956;BMP180;8594;52.052;8.354;2024-02-21T09:40:35;100716.00;;;13.50
16956;BMP180;8594;52.052;8.354;2024-02-21T09:43:05;100719.00;;;13.70
16956;BMP180;8594;52.052;8.354;2024-02-21T09:45:34;100709.00;;;13.80
16956;BMP180;8594;52.052;8.354;2024-02-21T09:48:21;100699.00;;;13.80
16956;BMP180;8594;52.052;8.354;2024-02-21T09:50:51;100694.00;;;13.70
16956;BMP180;8594;52.052;8.354;2024-02-21T09:53:20;100683.00;;;13.70
16956;BMP180;8594;52.052;8.354;2024-02-21T09:55:48;100680.00;;;14.00
16956;BMP180;8594;52.052;8.354;2024-02-21T09:58:15;100689.00;;;14.00
16956;BMP180;8594;52.052;8.354;2024-02-21T10:00:42;100692.00;;;14.30
16956;BMP180;8594;52.052;8.354;2024-02-21T10:03:09;100687.00;;;14.30
16956;BMP180;8594;52.052;8.354;2024-02-21T10:05:38;100685.00;;;14.50
16956;BMP180;8594;52.052;8.354;2024-02-21T10:08:05;100683.00;;;14.50
16956;BMP180;8594;52.052;8.354;2024-02-21T10:10:42;100683.00;;;14.10
16956;BMP180;8594;52.052;8.354;2024-02-21T10:13:10;100685.00;;;14.00
16956;BMP180;8594;52.052;8.354;2024-02-21T10:15:37;100684.00;;;14.00
16956;BMP180;8594;52.052;8.354;2024-02-21T10:18:04;100683.00;;;13.70
16956;BMP180;8594;52.052;8.354;2024-02-21T10:20:32;100676.00;;;13.60
16956;BMP180;8594;52.052;8.354;2024-02-21T10:23:05;100681.00;;;13.70
16956;BMP180;8594;52.052;8.354;2024-02-21T10:25:34;100674.00;;;13.60
16956;BMP180;8594;52.052;8.354;2024-02-21T10:28:04;100681.00;;;13.90
16956;BMP180;8594;52.052;8.354;2024-02-21T10:30:31;100675.00;;;13.70
16956;BMP180;8594;52.052;8.354;2024-02-21T10:32:57;100680.00;;;13.60
16956;BMP180;8594;52.052;8.354;2024-02-21T10:35:30;100685.00;;;13.70
16956;BMP180;8594;52.052;8.354;2024-02-21T10:37:58;100675.00;;;13.50
16956;BMP180;8594;52.052;8.354;2024-02-21T10:40:29;100662.00;;;13.30
16956;BMP180;8594;52.052;8.354;2024-02-21T10:42:58;100665.00;;;13.10
16956;BMP180;8594;52.052;8.354;2024-02-21T10:45:30;100659.00;;;12.80
16956;BMP180;8594;52.052;8.354;2024-02-21T10:48:11;100650.00;;;12.70
16956;BMP180;8594;52.052;8.354;2024-02-21T10:50:55;100648.00;;;13.10
16956;BMP180;8594;52.052;8.354;2024-02-21T10:53:35;100643.00;;;13.10
16956;BMP180;8594;52.052;8.354;2024-02-21T10:56:17;100639.00;;;13.50
16956;BMP180;8594;52.052;8.354;2024-02-21T10:58:48;100638.00;;;13.40
16956;BMP180;8594;52.052;8.354;2024-02-21T11:01:17;100619.00;;;13.30
16956;BMP180;8594;52.052;8.354;2024-02-21T11:03:47;100625.00;;;13.60
16956;BMP180;8594;52.052;8.354;2024-02-21T11:06:16;100617.00;;;13.70
16956;BMP180;8594;52.052;8.354;2024-02-21T11:08:43;100607.00;;;13.80
16956;BMP180;8594;52.052;8.354;2024-02-21T11:11:13;100598.00;;;13.50
16956;BMP180;8594;52.052;8.354;2024-02-21T11:13:44;100604.00;;;13.30
16956;BMP180;8594;52.052;8.354;2024-02-21T11:16:21;100600.00;;;13.50
16956;BMP180;8594;52.052;8.354;2024-02-21T11:18:48;100595.00;;;13.80
16956;BMP180;8594;52.052;8.354;2024-02-21T11:21:15;100592.00;;;13.50
16956;BMP180;8594;52.052;8.354;2024-02-21T11:23:42;100583.00;;;13.80
16956;BMP180;8594;52.052;8.354;2024-02-21T11:26:09;100575.00;;;14.10
16956;BMP180;8594;52.052;8.354;2024-02-21T11:28:38;100571.00;;;14.10
16956;BMP180;8594;52.052;8.354;2024-02-21T11:31:07;100559.00;;;14.10
16956;BMP180;8594;52.052;8.354;2024-02-21T11:33:35;100556.00;;;14.10
16956;BMP180;8594;52.052;8.354;2024-02-21T11:36:02;100555.00;;;14.10
16956;BMP180;8594;52.052;8.354;2024-02-21T11:38:30;100549.00;;;13.40
16956;BMP180;8594;52.052;8.354;2024-02-21T11:40:57;100544.00;;;13.60
16956;BMP180;8594;52.052;8.354;2024-02-21T11:43:24;100539.00;;;13.60
16956;BMP180;8594;52.052;8.354;2024-02-21T11:45:59;100532.00;;;13.60
16956;BMP180;8594;52.052;8.354;2024-02-21T11:48:26;100533.00;;;13.70
16956;BMP180;8594;52.052;8.354;2024-02-21T11:50:54;100526.00;;;13.70
16956;BMP180;8594;52.052;8.354;2024-02-21T11:53:21;100522.00;;;13.70
16956;BMP180;8594;52.052;8.354;2024-02-21T11:55:49;100516.00;;;13.00
16956;BMP180;8594;52.052;8.354;2024-02-21T11:58:16;100530.00;;;13.00
16956;BMP180;8594;52.052;8.354;2024-02-21T12:00:43;100523.00;;;12.70
16956;BMP180;8594;52.052;8.354;2024-02-21T12:03:14;100510.00;;;12.50
16956;BMP180;8594;52.052;8.354;2024-02-21T12:05:42;100511.00;;;13.00
16956;BMP180;8594;52.052;8.354;2024-02-21T12:08:08;100528.00;;;13.10
16956;BMP180;8594;52.052;8.354;2024-02-21T12:10:36;100518.00;;;12.80
16956;BMP180;8594;52.052;8.354;2024-02-21T12:13:06;100506.00;;;12.40
16956;BMP180;8594;52.052;8.354;2024-02-21T12:15:34;100512.00;;;12.60
16956;BMP180;8594;52.052;8.354;2024-02-21T12:18:01;100513.00;;;12.50
16956;BMP180;8594;52.052;8.354;2024-02-21T12:20:30;100500.00;;;12.70
16956;BMP180;8594;52.052;8.354;2024-02-21T12:23:00;100484.00;;;12.20
16956;BMP180;8594;52.052;8.354;2024-02-21T12:25:28;100496.00;;;12.90
16956;BMP180;8594;52.052;8.354;2024-02-21T12:27:55;100483.00;;;12.90
16956;BMP180;8594;52.052;8.354;2024-02-21T12:30:22;100473.00;;;12.30
16956;BMP180;8594;52.052;8.354;2024-02-21T12:32:49;100471.00;;;13.20
16956;BMP180;8594;52.052;8.354;2024-02-21T12:35:15;100469.00;;;13.10
16956;BMP180;8594;52.052;8.354;2024-02-21T12:37:44;100447.00;;;12.80
16956;BMP180;8594;52.052;8.354;2024-02-21T12:40:11;100436.00;;;12.70
16956;BMP180;8594;52.052;8.354;2024-02-21T12:42:39;100423.00;;;12.70
16956;BMP180;8594;52.052;8.354;2024-02-21T12:45:07;100431.00;;;12.60
16956;BMP180;8594;52.052;8.354;2024-02-21T12:47:33;100424.00;;;13.20
16956;BMP180;8594;52.052;8.354;2024-02-21T12:50:00;100430.00;;;13.20
16956;BMP180;8594;52.052;8.354;2024-02-21T12:52:29;100417.00;;;13.20
16956;BMP180;8594;52.052;8.354;2024-02-21T12:54:58;100426.00;;;13.10
16956;BMP180;8594;52.052;8.354;2024-02-21T12:57:24;100439.00;;;12.90
16956;BMP180;8594;52.052;8.354;2024-02-21T12:59:51;100419.00;;;12.70
16956;BMP180;8594;52.052;8.354;2024-02-21T13:02:18;100379.00;;;12.50
16956;BMP180;8594;52.052;8.354;2024-02-21T13:04:45;100383.00;;;12.60
16956;BMP180;8594;52.052;8.354;2024-02-21T13:07:12;100379.00;;;13.10
16956;BMP180;8594;52.052;8.354;2024-02-21T13:09:39;100363.00;;;13.10
16956;BMP180;8594;52.052;8.354;2024-02-21T13:12:08;100325.00;;;13.30
16956;BMP180;8594;52.052;8.354;2024-02-21T13:14:34;100335.00;;;13.60
16956;BMP180;8594;52.052;8.354;2024-02-21T13:17:04;100309.00;;;13.40
16956;BMP180;8594;52.052;8.354;2024-02-21T13:19:31;100291.00;;;13.60
16956;BMP180;8594;52.052;8.354;2024-02-21T13:21:58;100285.00;;;13.50
16956;BMP180;8594;52.052;8.354;2024-02-21T13:24:24;100288.00;;;13.60
16956;BMP180;8594;52.052;8.354;2024-02-21T13:26:51;100302.00;;;13.40
16956;BMP180;8594;52.052;8.354;2024-02-21T13:29:19;100303.00;;;13.70
16956;BMP180;8594;52.052;8.354;2024-02-21T13:31:46;100290.00;;;13.90
16956;BMP180;8594;52.052;8.354;2024-02-21T13:34:13;100283.00;;;13.70
16956;BMP180;8594;52.052;8.354;2024-02-21T13:36:40;100264.00;;;13.90
16956;BMP180;8594;52.052;8.354;2024-02-21T13:39:06;100263.00;;;13.70
16956;BMP180;8594;52.052;8.354;2024-02-21T13:41:38;100230.00;;;13.70
16956;BMP180;8594;52.052;8.354;2024-02-21T13:44:05;100227.00;;;13.70
16956;BMP180;8594;52.052;8.354;2024-02-21T13:46:33;100228.00;;;13.50
16956;BMP180;8594;52.052;8.354;2024-02-21T13:49:04;100218.00;;;13.70
16956;BMP180;8594;52.052;8.354;2024-02-21T13:51:33;100202.00;;;13.80
16956;BMP180;8594;52.052;8.354;2024-02-21T13:54:01;100188.00;;;13.70
16956;BMP180;8594;52.052;8.354;2024-02-21T13:56:28;100197.00;;;13.40
16956;BMP180;8594;52.052;8.354;2024-02-21T13:58:55;100230.00;;;13.70
16956;BMP180;8594;52.052;8.354;2024-02-21T14:01:22;100230.00;;;13.50
16956;BMP180;8594;52.052;8.354;2024-02-21T14:03:50;100238.00;;;13.30
16956;BMP180;8594;52.052;8.354;2024-02-21T14:06:16;100222.00;;;13.40
16956;BMP180;8594;52.052;8.354;2024-02-21T14:08:43;100208.00;;;13.80
16956;BMP180;8594;52.052;8.354;2024-02-21T14:11:10;100190.00;;;13.60